Wetterstation Oberdrees
Wetterdaten: aktuell Donnerstag, 18.10.2018 14:20
Datum Zeit Temp. A. Feuchte A. Luftdruck Regen Wind Richtung Richtung Taupunkt Windchill Windben
18.10.2018 14:20 16,2 C 79 % 1011 hPa 0,0 l/m 0,0 km/h (0 Bft) N 360 12,6 C 16,2 C 0,0 km/h (0 Bft)
18.10.2018 14:10 16,0 C 79 % 1011 hPa 0,0 l/m 0,0 km/h (0 Bft) N 360 12,4 C 16,0 C 0,0 km/h (0 Bft)
18.10.2018 14:00 16,0 C 79 % 1011 hPa 0,0 l/m 0,0 km/h (0 Bft) N 360 12,4 C 16,0 C 0,0 km/h (0 Bft)
18.10.2018 13:50 15,8 C 80 % 1011 hPa 0,0 l/m 0,0 km/h (0 Bft) N 360 12,4 C 15,8 C 0,0 km/h (0 Bft)
18.10.2018 13:40 15,6 C 80 % 1011 hPa 0,0 l/m 0,0 km/h (0 Bft) N 360 12,2 C 15,6 C 0,0 km/h (0 Bft)
18.10.2018 13:30 15,6 C 80 % 1011 hPa 0,0 l/m 0,0 km/h (0 Bft) N 360 12,2 C 15,6 C 0,0 km/h (0 Bft)
18.10.2018 13:20 15,5 C 80 % 1011 hPa 0,0 l/m 0,0 km/h (0 Bft) N 360 12,1 C 15,5 C 0,0 km/h (0 Bft)
18.10.2018 13:10 15,4 C 81 % 1011 hPa 0,0 l/m 0,0 km/h (0 Bft) N 360 12,2 C 15,4 C 0,0 km/h (0 Bft)
18.10.2018 13:00 15,5 C 81 % 1011 hPa 0,0 l/m 0,0 km/h (0 Bft) N 360 12,3 C 15,5 C 0,0 km/h (0 Bft)
18.10.2018 12:50 15,5 C 81 % 1011 hPa 0,0 l/m 0,0 km/h (0 Bft) N 360 12,3 C 15,5 C 0,0 km/h (0 Bft)
18.10.2018 12:40 15,5 C 81 % 1011 hPa 0,0 l/m 0,0 km/h (0 Bft) N 360 12,3 C 15,5 C 0,0 km/h (0 Bft)
18.10.2018 12:30 15,5 C 82 % 1011 hPa 0,0 l/m 0,0 km/h (0 Bft) N 360 12,4 C 15,5 C 0,0 km/h (0 Bft)
18.10.2018 12:20 15,4 C 82 % 1011 hPa 0,0 l/m 0,0 km/h (0 Bft) N 360 12,3 C 15,4 C 0,0 km/h (0 Bft)
18.10.2018 12:10 15,4 C 82 % 1011 hPa 0,0 l/m 0,0 km/h (0 Bft) N 360 12,3 C 15,4 C 0,0 km/h (0 Bft)
18.10.2018 12:00 15,4 C 82 % 1011 hPa 0,0 l/m 0,0 km/h (0 Bft) N 360 12,3 C 15,4 C 0,0 km/h (0 Bft)
18.10.2018 11:50 15,3 C 82 % 1011 hPa 0,0 l/m 0,0 km/h (0 Bft) N 360 12,2 C 15,3 C 0,0 km/h (0 Bft)
18.10.2018 11:40 15,3 C 83 % 1011 hPa 0,0 l/m 0,0 km/h (0 Bft) N 360 12,4 C 15,3 C 0,0 km/h (0 Bft)
18.10.2018 11:30 15,2 C 83 % 1011 hPa 0,0 l/m 0,0 km/h (0 Bft) N 360 12,3 C 15,2 C 0,0 km/h (0 Bft)
18.10.2018 11:20 15,2 C 83 % 1011 hPa 0,0 l/m 0,0 km/h (0 Bft) N 360 12,3 C 15,2 C 0,0 km/h (0 Bft)
18.10.2018 11:10 14,8 C 84 % 1011 hPa 0,0 l/m 0,0 km/h (0 Bft) N 360 12,1 C 14,8 C 0,0 km/h (0 Bft)
18.10.2018 11:00 14,6 C 84 % 1011 hPa 0,0 l/m 0,0 km/h (0 Bft) N 360 11,9 C 14,6 C 0,0 km/h (0 Bft)
18.10.2018 10:50 14,4 C 85 % 1011 hPa 0,0 l/m 0,0 km/h (0 Bft) N 360 11,9 C 14,4 C 0,0 km/h (0 Bft)
18.10.2018 10:40 14,3 C 85 % 1011 hPa 0,0 l/m 0,0 km/h (0 Bft) N 360 11,8 C 14,3 C 0,0 km/h (0 Bft)
18.10.2018 10:30 14,3 C 85 % 1011 hPa 0,0 l/m 0,0 km/h (0 Bft) N 360 11,8 C 14,3 C 0,0 km/h (0 Bft)
18.10.2018 10:20 14,2 C 85 % 1011 hPa 0,0 l/m 0,0 km/h (0 Bft) N 360 11,7 C 14,2 C 0,0 km/h (0 Bft)
18.10.2018 10:10 14,2 C 85 % 1011 hPa 0,0 l/m 0,0 km/h (0 Bft) N 360 11,7 C 14,2 C 0,0 km/h (0 Bft)
18.10.2018 10:00 14,2 C 86 % 1011 hPa 0,0 l/m 0,0 km/h (0 Bft) N 360 11,9 C 14,2 C 0,0 km/h (0 Bft)
18.10.2018 09:50 13,9 C 85 % 1011 hPa 0,0 l/m 0,0 km/h (0 Bft) N 360 11,4 C 13,9 C 0,0 km/h (0 Bft)
18.10.2018 09:40 13,8 C 85 % 1011 hPa 0,0 l/m 0,0 km/h (0 Bft) N 360 11,3 C 13,8 C 0,0 km/h (0 Bft)
18.10.2018 09:30 13,7 C 85 % 1010 hPa 0,0 l/m 0,0 km/h (0 Bft) N 360 11,2 C 13,7 C 0,0 km/h (0 Bft)
18.10.2018 09:20 13,6 C 85 % 1010 hPa 0,0 l/m 0,0 km/h (0 Bft) N 360 11,1 C 13,6 C 0,0 km/h (0 Bft)
18.10.2018 09:10 13,6 C 85 % 1010 hPa 0,0 l/m 0,0 km/h (0 Bft) N 360 11,1 C 13,6 C 0,0 km/h (0 Bft)
18.10.2018 09:00 13,6 C 85 % 1010 hPa 0,0 l/m 0,0 km/h (0 Bft) N 360 11,1 C 13,6 C 0,0 km/h (0 Bft)
18.10.2018 08:50 13,6 C 86 % 1010 hPa 0,0 l/m 0,0 km/h (0 Bft) N 360 11,3 C 13,6 C 0,0 km/h (0 Bft)
18.10.2018 08:40 13,6 C 86 % 1010 hPa 0,0 l/m 0,0 km/h (0 Bft) N 360 11,3 C 13,6 C 0,0 km/h (0 Bft)
18.10.2018 08:30 13,5 C 86 % 1010 hPa 0,0 l/m 0,0 km/h (0 Bft) N 360 11,2 C 13,5 C 0,0 km/h (0 Bft)
18.10.2018 08:20 13,4 C 86 % 1010 hPa 0,0 l/m 0,0 km/h (0 Bft) N 360 11,1 C 13,4 C 0,0 km/h (0 Bft)
18.10.2018 08:10 13,4 C 86 % 1010 hPa 0,0 l/m 0,0 km/h (0 Bft) N 360 11,1 C 13,4 C 0,0 km/h (0 Bft)
18.10.2018 08:00 13,4 C 86 % 1010 hPa 0,0 l/m 0,0 km/h (0 Bft) N 360 11,1 C 13,4 C 0,0 km/h (0 Bft)
18.10.2018 07:50 13,4 C 86 % 1010 hPa 0,0 l/m 0,0 km/h (0 Bft) N 360 11,1 C 13,4 C 0,0 km/h (0 Bft)
18.10.2018 07:40 13,4 C 86 % 1010 hPa 0,0 l/m 0,0 km/h (0 Bft) N 360 11,1 C 13,4 C 0,0 km/h (0 Bft)
18.10.2018 07:30 13,4 C 86 % 1010 hPa 0,0 l/m 0,0 km/h (0 Bft) N 360 11,1 C 13,4 C 0,0 km/h (0 Bft)
18.10.2018 07:20 13,2 C 86 % 1010 hPa 0,0 l/m 0,0 km/h (0 Bft) N 360 10,9 C 13,2 C 0,0 km/h (0 Bft)
18.10.2018 07:10 13,2 C 86 % 1010 hPa 0,0 l/m 0,0 km/h (0 Bft) N 360 10,9 C 13,2 C 0,0 km/h (0 Bft)
18.10.2018 07:00 13,1 C 86 % 1009 hPa 0,0 l/m 0,0 km/h (0 Bft) N 360 10,8 C 13,1 C 0,0 km/h (0 Bft)
18.10.2018 06:50 13,1 C 86 % 1009 hPa 0,0 l/m 0,0 km/h (0 Bft) N 360 10,8 C 13,1 C 0,0 km/h (0 Bft)
18.10.2018 06:40 13,1 C 86 % 1009 hPa 0,0 l/m 0,0 km/h (0 Bft) N 360 10,8 C 13,1 C 0,0 km/h (0 Bft)
18.10.2018 06:30 13,1 C 86 % 1009 hPa 0,0 l/m 0,0 km/h (0 Bft) N 360 10,8 C 13,1 C 0,0 km/h (0 Bft)
18.10.2018 06:20 13,2 C 86 % 1009 hPa 0,0 l/m 0,0 km/h (0 Bft) N 360 10,9 C 13,2 C 0,0 km/h (0 Bft)
18.10.2018 06:10 13,2 C 86 % 1009 hPa 0,0 l/m 0,0 km/h (0 Bft) N 360 10,9 C 13,2 C 0,0 km/h (0 Bft)
18.10.2018 06:00 13,2 C 86 % 1009 hPa 0,0 l/m 0,0 km/h (0 Bft) N 360 10,9 C 13,2 C 0,0 km/h (0 Bft)
18.10.2018 05:50 13,1 C 86 % 1009 hPa 0,0 l/m 0,0 km/h (0 Bft) N 360 10,8 C 13,1 C 0,0 km/h (0 Bft)
18.10.2018 05:40 13,2 C 86 % 1009 hPa 0,0 l/m 0,0 km/h (0 Bft) N 360 10,9 C 13,2 C 0,0 km/h (0 Bft)
18.10.2018 05:30 13,2 C 86 % 1009 hPa 0,0 l/m 0,0 km/h (0 Bft) N 360 10,9 C 13,2 C 0,0 km/h (0 Bft)
18.10.2018 05:20 13,2 C 86 % 1009 hPa 0,0 l/m 0,0 km/h (0 Bft) N 360 10,9 C 13,2 C 0,0 km/h (0 Bft)
18.10.2018 05:10 13,3 C 85 % 1009 hPa 0,0 l/m 0,0 km/h (0 Bft) N 360 10,8 C 13,3 C 0,0 km/h (0 Bft)
18.10.2018 05:00 13,4 C 85 % 1009 hPa 0,0 l/m 0,0 km/h (0 Bft) N 360 10,9 C 13,4 C 0,0 km/h (0 Bft)
18.10.2018 04:50 13,2 C 85 % 1009 hPa 0,0 l/m 0,0 km/h (0 Bft) N 360 10,7 C 13,2 C 0,0 km/h (0 Bft)
18.10.2018 04:40 13,2 C 85 % 1009 hPa 0,0 l/m 0,0 km/h (0 Bft) N 360 10,7 C 13,2 C 0,0 km/h (0 Bft)
18.10.2018 04:30 13,2 C 85 % 1009 hPa 0,0 l/m 0,0 km/h (0 Bft) N 360 10,7 C 13,2 C 0,0 km/h (0 Bft)
18.10.2018 04:20 13,2 C 84 % 1009 hPa 0,0 l/m 0,0 km/h (0 Bft) N 360 10,6 C 13,2 C 0,0 km/h (0 Bft)
18.10.2018 04:10 13,2 C 84 % 1009 hPa 0,0 l/m 0,0 km/h (0 Bft) N 360 10,6 C 13,2 C 0,0 km/h (0 Bft)
18.10.2018 04:00 13,2 C 83 % 1009 hPa 0,0 l/m 0,0 km/h (0 Bft) N 360 10,4 C 13,2 C 0,0 km/h (0 Bft)
18.10.2018 03:50 13,3 C 83 % 1009 hPa 0,0 l/m 0,0 km/h (0 Bft) N 360 10,5 C 13,3 C 0,0 km/h (0 Bft)
18.10.2018 03:40 13,2 C 83 % 1009 hPa 0,0 l/m 0,0 km/h (0 Bft) N 360 10,4 C 13,2 C 0,0 km/h (0 Bft)
18.10.2018 03:30 13,1 C 82 % 1009 hPa 0,0 l/m 0,0 km/h (0 Bft) N 360 10,1 C 13,1 C 0,0 km/h (0 Bft)
18.10.2018 03:20 13,1 C 82 % 1009 hPa 0,0 l/m 0,0 km/h (0 Bft) N 360 10,1 C 13,1 C 0,0 km/h (0 Bft)
18.10.2018 03:10 13,2 C 82 % 1009 hPa 0,0 l/m 0,0 km/h (0 Bft) N 360 10,2 C 13,2 C 0,0 km/h (0 Bft)
18.10.2018 03:00 13,2 C 81 % 1009 hPa 0,0 l/m 0,0 km/h (0 Bft) N 360 10,0 C 13,2 C 0,0 km/h (0 Bft)
18.10.2018 02:50 13,4 C 81 % 1008 hPa 0,0 l/m 0,0 km/h (0 Bft) N 360 10,2 C 13,4 C 0,0 km/h (0 Bft)
18.10.2018 02:40 13,5 C 81 % 1008 hPa 0,0 l/m 0,0 km/h (0 Bft) N 360 10,3 C 13,5 C 0,0 km/h (0 Bft)
18.10.2018 02:30 13,6 C 81 % 1008 hPa 0,0 l/m 0,0 km/h (0 Bft) N 360 10,4 C 13,6 C 0,0 km/h (0 Bft)
18.10.2018 02:20 13,7 C 82 % 1009 hPa 0,0 l/m 0,0 km/h (0 Bft) N 360 10,7 C 13,7 C 0,0 km/h (0 Bft)
18.10.2018 02:10 13,7 C 81 % 1009 hPa 0,0 l/m 0,0 km/h (0 Bft) N 360 10,5 C 13,7 C 0,0 km/h (0 Bft)
18.10.2018 02:00 13,7 C 80 % 1009 hPa 0,0 l/m 0,0 km/h (0 Bft) N 360 10,3 C 13,7 C 0,0 km/h (0 Bft)
18.10.2018 01:50 13,8 C 80 % 1009 hPa 0,0 l/m 0,0 km/h (0 Bft) N 360 10,4 C 13,8 C 0,0 km/h (0 Bft)
18.10.2018 01:40 14,0 C 80 % 1009 hPa 0,0 l/m 0,0 km/h (0 Bft) N 360 10,6 C 14,0 C 0,0 km/h (0 Bft)
18.10.2018 01:30 14,0 C 80 % 1009 hPa 0,0 l/m 0,0 km/h (0 Bft) N 360 10,6 C 14,0 C 0,0 km/h (0 Bft)
18.10.2018 01:20 14,2 C 80 % 1009 hPa 0,0 l/m 0,0 km/h (0 Bft) N 360 10,8 C 14,2 C 0,0 km/h (0 Bft)
18.10.2018 01:10 14,3 C 80 % 1009 hPa 0,0 l/m 0,0 km/h (0 Bft) N 360 10,9 C 14,3 C 0,0 km/h (0 Bft)
18.10.2018 01:00 14,3 C 80 % 1009 hPa 0,0 l/m 0,0 km/h (0 Bft) N 360 10,9 C 14,3 C 0,0 km/h (0 Bft)
18.10.2018 00:50 14,3 C 80 % 1008 hPa 0,0 l/m 0,0 km/h (0 Bft) N 360 10,9 C 14,3 C 0,0 km/h (0 Bft)
18.10.2018 00:40 14,4 C 79 % 1008 hPa 0,0 l/m 0,0 km/h (0 Bft) N 360 10,8 C 14,4 C 0,0 km/h (0 Bft)
18.10.2018 00:30 14,4 C 79 % 1008 hPa 0,0 l/m 0,0 km/h (0 Bft) N 360 10,8 C 14,4 C 0,0 km/h (0 Bft)
18.10.2018 00:20 14,4 C 78 % 1008 hPa 0,0 l/m 0,0 km/h (0 Bft) N 360 10,6 C 14,4 C 0,0 km/h (0 Bft)
18.10.2018 00:10 14,5 C 77 % 1008 hPa 0,0 l/m 0,0 km/h (0 Bft) N 360 10,5 C 14,5 C 0,0 km/h (0 Bft)
18.10.2018 00:00 14,7 C 77 % 1008 hPa 0,0 l/m 0,0 km/h (0 Bft) N 360 10,7 C 14,7 C 0,0 km/h (0 Bft)
17.10.2018 23:50 14,8 C 76 % 1008 hPa 0,0 l/m 0,0 km/h (0 Bft) N 360 10,6 C 14,8 C 0,0 km/h (0 Bft)
17.10.2018 23:40 14,8 C 76 % 1008 hPa 0,0 l/m 0,0 km/h (0 Bft) N 360 10,6 C 14,8 C 0,0 km/h (0 Bft)
17.10.2018 23:30 14,8 C 76 % 1008 hPa 0,0 l/m 0,0 km/h (0 Bft) N 360 10,6 C 14,8 C 0,0 km/h (0 Bft)
17.10.2018 23:20 14,9 C 75 % 1008 hPa 0,0 l/m 0,0 km/h (0 Bft) N 360 10,5 C 14,9 C 0,0 km/h (0 Bft)
17.10.2018 23:10 15,0 C 74 % 1008 hPa 0,0 l/m 0,0 km/h (0 Bft) N 360 10,4 C 15,0 C 0,0 km/h (0 Bft)
17.10.2018 23:00 15,2 C 73 % 1008 hPa 0,0 l/m 0,0 km/h (0 Bft) N 360 10,4 C 15,2 C 0,0 km/h (0 Bft)
17.10.2018 22:50 15,3 C 73 % 1008 hPa 0,0 l/m 0,0 km/h (0 Bft) N 360 10,5 C 15,3 C 0,0 km/h (0 Bft)
17.10.2018 22:40 15,5 C 73 % 1008 hPa 0,0 l/m 0,0 km/h (0 Bft) N 360 10,7 C 15,5 C 0,0 km/h (0 Bft)
17.10.2018 22:30 15,6 C 73 % 1008 hPa 0,0 l/m 0,0 km/h (0 Bft) N 360 10,8 C 15,6 C 0,0 km/h (0 Bft)
17.10.2018 22:20 15,6 C 72 % 1008 hPa 0,0 l/m 0,0 km/h (0 Bft) N 360 10,6 C 15,6 C 0,0 km/h (0 Bft)
17.10.2018 22:10 15,6 C 71 % 1008 hPa 0,0 l/m 0,0 km/h (0 Bft) N 360 10,4 C 15,6 C 0,0 km/h (0 Bft)
17.10.2018 22:00 15,8 C 71 % 1008 hPa 0,0 l/m 0,0 km/h (0 Bft) N 360 10,6 C 15,8 C 0,0 km/h (0 Bft)
17.10.2018 21:50 15,9 C 71 % 1008 hPa 0,0 l/m 0,0 km/h (0 Bft) N 360 10,6 C 15,9 C 0,0 km/h (0 Bft)
17.10.2018 21:40 15,9 C 70 % 1008 hPa 0,0 l/m 0,0 km/h (0 Bft) N 360 10,4 C 15,9 C 0,0 km/h (0 Bft)
17.10.2018 21:30 16,0 C 69 % 1008 hPa 0,0 l/m 0,0 km/h (0 Bft) N 360 10,3 C 16,0 C 0,0 km/h (0 Bft)
17.10.2018 21:20 16,1 C 68 % 1008 hPa 0,0 l/m 0,0 km/h (0 Bft) N 360 10,2 C 16,1 C 0,0 km/h (0 Bft)
17.10.2018 21:10 16,2 C 68 % 1008 hPa 0,0 l/m 0,0 km/h (0 Bft) N 360 10,3 C 16,2 C 0,0 km/h (0 Bft)
17.10.2018 21:00 16,3 C 68 % 1008 hPa 0,0 l/m 0,0 km/h (0 Bft) N 360 10,4 C 16,3 C 0,0 km/h (0 Bft)
17.10.2018 20:50 16,4 C 67 % 1008 hPa 0,0 l/m 0,0 km/h (0 Bft) N 360 10,3 C 16,4 C 0,0 km/h (0 Bft)
17.10.2018 20:40 16,6 C 66 % 1008 hPa 0,0 l/m 0,0 km/h (0 Bft) N 360 10,2 C 16,6 C 0,0 km/h (0 Bft)
17.10.2018 20:30 16,8 C 65 % 1007 hPa 0,0 l/m 0,0 km/h (0 Bft) N 360 10,2 C 16,8 C 0,0 km/h (0 Bft)
17.10.2018 20:20 17,0 C 64 % 1007 hPa 0,0 l/m 0,0 km/h (0 Bft) N 360 10,1 C 17,0 C 0,0 km/h (0 Bft)
17.10.2018 20:10 17,3 C 63 % 1007 hPa 0,0 l/m 0,0 km/h (0 Bft) N 360 10,2 C 17,3 C 0,0 km/h (0 Bft)
17.10.2018 20:00 17,6 C 62 % 1007 hPa 0,0 l/m 0,0 km/h (0 Bft) N 360 10,2 C 17,6 C 0,0 km/h (0 Bft)
17.10.2018 19:50 17,7 C 61 % 1007 hPa 0,0 l/m 0,0 km/h (0 Bft) N 360 10,1 C 17,7 C 0,0 km/h (0 Bft)
17.10.2018 19:40 18,0 C 61 % 1007 hPa 0,0 l/m 0,0 km/h (0 Bft) N 360 10,4 C 18,0 C 0,0 km/h (0 Bft)
17.10.2018 19:30 18,4 C 60 % 1007 hPa 0,0 l/m 0,0 km/h (0 Bft) N 360 10,5 C 18,4 C 0,0 km/h (0 Bft)
17.10.2018 19:20 18,7 C 59 % 1007 hPa 0,0 l/m 0,0 km/h (0 Bft) N 360 10,5 C 18,7 C 0,0 km/h (0 Bft)
17.10.2018 19:10 19,1 C 57 % 1007 hPa 0,0 l/m 0,0 km/h (0 Bft) N 360 10,4 C 19,1 C 0,0 km/h (0 Bft)
17.10.2018 19:00 19,6 C 56 % 1007 hPa 0,0 l/m 0,0 km/h (0 Bft) N 360 10,6 C 19,6 C 0,0 km/h (0 Bft)
17.10.2018 18:50 20,0 C 56 % 1006 hPa 0,0 l/m 0,0 km/h (0 Bft) N 360 11,0 C 20,0 C 0,0 km/h (0 Bft)
17.10.2018 18:40 20,6 C 54 % 1006 hPa 0,0 l/m 0,0 km/h (0 Bft) N 360 11,0 C 20,6 C 0,0 km/h (0 Bft)
17.10.2018 18:30 21,1 C 54 % 1006 hPa 0,0 l/m 0,0 km/h (0 Bft) N 360 11,4 C 21,1 C 0,0 km/h (0 Bft)
17.10.2018 18:20 21,8 C 53 % 1006 hPa 0,0 l/m 0,0 km/h (0 Bft) N 360 11,8 C 21,8 C 0,0 km/h (0 Bft)
17.10.2018 18:10 22,4 C 52 % 1006 hPa 0,0 l/m 0,0 km/h (0 Bft) N 360 12,1 C 22,4 C 0,0 km/h (0 Bft)
17.10.2018 18:00 22,8 C 52 % 1006 hPa 0,0 l/m 0,0 km/h (0 Bft) N 360 12,4 C 22,8 C 0,0 km/h (0 Bft)
17.10.2018 17:50 23,3 C 50 % 1006 hPa 0,0 l/m 0,0 km/h (0 Bft) N 360 12,3 C 23,3 C 0,0 km/h (0 Bft)
17.10.2018 17:40 23,8 C 49 % 1006 hPa 0,0 l/m 0,0 km/h (0 Bft) N 360 12,4 C 23,8 C 0,0 km/h (0 Bft)
17.10.2018 17:30 24,0 C 49 % 1006 hPa 0,0 l/m 0,0 km/h (0 Bft) N 360 12,6 C 24,0 C 0,0 km/h (0 Bft)
17.10.2018 17:20 24,2 C 49 % 1006 hPa 0,0 l/m 0,0 km/h (0 Bft) N 360 12,8 C 24,2 C 0,0 km/h (0 Bft)
17.10.2018 17:10 24,3 C 49 % 1006 hPa 0,0 l/m 0,0 km/h (0 Bft) N 360 12,9 C 24,3 C 0,0 km/h (0 Bft)
17.10.2018 17:00 24,5 C 48 % 1006 hPa 0,0 l/m 0,0 km/h (0 Bft) N 360 12,8 C 24,5 C 0,0 km/h (0 Bft)
17.10.2018 16:50 24,7 C 48 % 1006 hPa 0,0 l/m 0,0 km/h (0 Bft) N 360 12,9 C 24,7 C 0,0 km/h (0 Bft)
17.10.2018 16:40 24,8 C 48 % 1006 hPa 0,0 l/m 0,0 km/h (0 Bft) N 360 13,0 C 24,8 C 0,0 km/h (0 Bft)
17.10.2018 16:30 24,9 C 48 % 1006 hPa 0,0 l/m 0,0 km/h (0 Bft) N 360 13,1 C 24,9 C 0,0 km/h (0 Bft)
17.10.2018 16:20 25,1 C 47 % 1006 hPa 0,0 l/m 0,0 km/h (0 Bft) N 360 13,0 C 25,1 C 0,0 km/h (0 Bft)
17.10.2018 16:10 25,3 C 47 % 1006 hPa 0,0 l/m 0,0 km/h (0 Bft) N 360 13,2 C 25,3 C 0,0 km/h (0 Bft)
17.10.2018 16:00 25,6 C 47 % 1006 hPa 0,0 l/m 0,0 km/h (0 Bft) N 360 13,4 C 25,6 C 0,0 km/h (0 Bft)
17.10.2018 15:50 25,6 C 47 % 1006 hPa 0,0 l/m 0,0 km/h (0 Bft) N 360 13,4 C 25,6 C 0,0 km/h (0 Bft)
17.10.2018 15:40 25,9 C 47 % 1006 hPa 0,0 l/m 0,0 km/h (0 Bft) N 360 13,7 C 25,9 C 0,0 km/h (0 Bft)
17.10.2018 15:30 25,7 C 47 % 1006 hPa 0,0 l/m 0,0 km/h (0 Bft) N 360 13,5 C 25,7 C 0,0 km/h (0 Bft)
17.10.2018 15:20 25,6 C 47 % 1006 hPa 0,0 l/m 0,0 km/h (0 Bft) N 360 13,4 C 25,6 C 0,0 km/h (0 Bft)
17.10.2018 15:10 25,8 C 47 % 1006 hPa 0,0 l/m 0,0 km/h (0 Bft) N 360 13,6 C 25,8 C 0,0 km/h (0 Bft)
17.10.2018 15:00 25,9 C 47 % 1006 hPa 0,0 l/m 0,0 km/h (0 Bft) N 360 13,7 C 25,9 C 0,0 km/h (0 Bft)
_ Min-Zeit 03:20 15:00 15:00 - 15:00 - - 03:00 03:20 15:00
Minimum _ 13,1 C 47 % 1006 hPa - 0,0 km/h (0 Bft) - - 10,0 C 13,1 C 0,0 km/h (0 Bft)
_ Max-Zeit 15:00 05:20 09:40 15:00 15:00 - - 15:00 15:00 15:00
Maximum _ 25,9 C 86 % 1011 hPa 0,0 l/m 0,0 km/h
N (0 Bft)
- - 13,7 C 25,9 C 0,0 km/h
N (0 Bft)
Durchschnitt _ 17,0 C 72 % 1008 hPa #0,0 l/m 0,0 km/h (0 Bft) N - 11,5 C 17,0 C 0,0 km/h (0 Bft)
www.klaudt.eu